Time;durP1;ratioP1;P1;durP2;ratioP2;P2;SDS_P1;SDS_P2;PMS_P1;PMS_P2;Temp;Humidity;BMP_temperature;BMP_pressure;BME280_temperature;BME280_humidity;BME280_pressure;Samples;Min_cycle;Max_cycle;Signal;HPM_P1;HPM_P2
2023/05/11 00:01:16;;;;;;;36.67;22.45;;;15.60;88.70;;;14.86;72.14;100342.81;5028655;28;20127;-74
2023/05/11 00:03:44;;;;;;;34.50;21.35;;;15.60;88.70;;;14.85;72.09;100346.53;5026679;28;20132;-74
2023/05/11 00:06:11;;;;;;;32.40;21.42;;;15.60;88.70;;;14.85;72.21;100349.22;5029062;28;20059;-74
2023/05/11 00:08:39;;;;;;;33.20;20.38;;;15.60;88.90;;;14.85;72.25;100354.59;5029082;28;20046;-74
2023/05/11 00:11:08;;;;;;;32.40;21.42;;;15.60;88.80;;;14.84;72.51;100355.66;5027385;28;20537;-74
2023/05/11 00:13:35;;;;;;;33.00;21.40;;;15.60;88.70;;;14.83;72.37;100348.66;5026873;28;20128;-74
2023/05/11 00:16:03;;;;;;;37.58;22.55;;;15.60;88.80;;;14.84;72.74;100347.63;5028201;28;20052;-74
2023/05/11 00:18:30;;;;;;;34.10;21.92;;;15.60;88.90;;;14.83;72.78;100351.31;5029237;28;20049;-74
2023/05/11 00:20:57;;;;;;;33.97;21.55;;;15.60;89.00;;;14.83;72.99;100354.00;5027291;28;20046;-74
2023/05/11 00:23:25;;;;;;;38.78;22.08;;;15.60;89.00;;;14.83;73.00;100348.66;5026450;28;20588;-74
2023/05/11 00:25:53;;;;;;;38.95;23.63;;;15.60;89.20;;;14.81;73.22;100353.44;5028538;28;20061;-74
2023/05/11 00:28:21;;;;;;;37.88;24.17;;;15.60;89.30;;;14.80;73.22;100346.47;5028539;28;20078;-74
2023/05/11 00:30:49;;;;;;;37.08;22.75;;;15.60;89.30;;;14.82;73.36;100354.25;5028275;28;20040;-75
2023/05/11 00:33:17;;;;;;;37.50;22.50;;;15.60;89.40;;;14.80;73.52;100351.84;5007910;28;20095;-74
2023/05/11 00:35:44;;;;;;;38.80;22.42;;;15.60;89.30;;;14.81;73.42;100344.59;5020888;28;20076;-74
2023/05/11 00:38:12;;;;;;;39.55;23.25;;;15.60;89.60;;;14.80;73.71;100345.66;5028746;28;20043;-74
2023/05/11 00:40:39;;;;;;;38.30;23.30;;;15.60;89.50;;;14.80;73.85;100345.66;5027103;28;20120;-74
2023/05/11 00:43:08;;;;;;;33.55;22.10;;;15.60;89.70;;;14.79;74.05;100344.03;5027074;28;20060;-75
2023/05/11 00:45:36;;;;;;;37.85;23.58;;;15.60;90.00;;;14.77;74.00;100336.19;5028107;28;20041;-74
2023/05/11 00:48:04;;;;;;;39.75;23.30;;;15.60;89.80;;;14.78;74.04;100342.38;5039656;28;20088;-74
2023/05/11 00:50:31;;;;;;;36.92;22.92;;;15.60;90.00;;;14.77;74.17;100340.75;5010453;28;20048;-74
2023/05/11 00:52:59;;;;;;;40.65;23.80;;;15.50;90.00;;;14.76;74.23;100339.94;5027389;28;20045;-74
2023/05/11 00:55:27;;;;;;;37.92;23.77;;;15.60;90.00;;;14.75;74.18;100343.69;5012985;28;20136;-74
2023/05/11 00:57:54;;;;;;;41.25;25.15;;;15.60;90.00;;;14.73;74.33;100345.78;5027709;28;20041;-74
2023/05/11 01:00:24;;;;;;;40.55;24.17;;;15.50;90.30;;;14.73;74.54;100339.59;5028254;28;20875;-74
2023/05/11 01:02:52;;;;;;;38.35;23.15;;;15.50;90.40;;;14.72;74.54;100338.78;5010885;28;20053;-74
2023/05/11 01:05:20;;;;;;;39.78;24.50;;;15.50;90.40;;;14.72;74.49;100337.97;5027833;28;20095;-74
2023/05/11 01:07:58;;;;;;;39.40;24.60;;;15.50;90.50;;;14.70;74.41;100340.91;5028731;28;20060;-74
2023/05/11 01:10:34;;;;;;;41.92;23.92;;;15.50;90.50;;;14.70;74.52;100330.19;5025986;28;20057;-74
2023/05/11 01:13:14;;;;;;;40.83;25.52;;;15.50;90.40;;;14.68;74.63;100335.75;5007391;28;20615;-74
2023/05/11 01:15:50;;;;;;;41.72;26.33;;;15.40;90.40;;;14.68;74.52;100343.00;5010752;28;20132;-74
2023/05/11 01:18:26;;;;;;;47.13;25.70;;;15.50;90.40;;;14.67;74.50;100341.38;5016231;28;20065;-74
2023/05/11 01:20:57;;;;;;;40.10;24.98;;;15.40;90.20;;;14.67;74.40;100349.44;5011892;28;20048;-74
2023/05/11 01:24:11;;;;;;;38.92;23.90;;;15.40;90.20;;;14.68;74.57;100348.38;5031822;28;20087;-74
2023/05/11 01:27:03;;;;;;;44.53;25.10;;;15.50;90.40;;;14.66;74.37;100343.25;5014600;28;20111;-74
2023/05/11 01:29:47;;;;;;;41.38;25.08;;;15.40;90.20;;;14.69;74.54;100341.97;5018426;28;20038;-74
2023/05/11 01:32:22;;;;;;;39.08;24.30;;;15.50;90.40;;;14.69;74.59;100339.28;5031455;28;20073;-74
2023/05/11 01:34:58;;;;;;;41.03;25.10;;;15.50;90.60;;;14.70;74.36;100343.59;5030437;28;20140;-74
2023/05/11 01:37:27;;;;;;;39.95;25.10;;;15.50;90.40;;;14.69;74.36;100344.66;5032736;28;20497;-75
2023/05/11 01:40:01;;;;;;;40.33;25.42;;;15.50;90.40;;;14.69;74.37;100344.66;5014152;28;20041;-75
2023/05/11 01:42:36;;;;;;;44.47;25.85;;;15.50;90.40;;;14.68;74.38;100348.38;5012629;28;20052;-75
2023/05/11 01:45:06;;;;;;;41.40;24.90;;;15.50;90.40;;;14.68;74.42;100345.69;5031952;28;20045;-75
2023/05/11 01:47:37;;;;;;;41.78;25.27;;;15.50;90.40;;;14.67;74.36;100344.88;5029161;28;20532;-74
2023/05/11 01:50:07;;;;;;;41.50;25.33;;;15.50;90.40;;;14.66;74.55;100339.75;5013618;28;20053;-74
2023/05/11 01:52:37;;;;;;;45.17;25.85;;;15.50;90.50;;;14.67;74.53;100344.06;5022472;28;20052;-74
2023/05/11 01:55:07;;;;;;;45.95;25.45;;;15.50;90.50;;;14.68;74.44;100353.75;5033673;23;20037;-80
2023/05/11 01:57:38;;;;;;;42.00;25.30;;;15.50;90.40;;;14.68;74.47;100359.13;5002650;28;20121;-82
2023/05/11 02:00:08;;;;;;;41.83;24.77;;;15.50;90.40;;;14.67;74.33;100358.31;4993210;28;20145;-81
2023/05/11 02:02:46;;;;;;;37.75;24.58;;;15.50;90.50;;;14.68;74.71;100367.16;4988804;28;20046;-81
2023/05/11 02:05:19;;;;;;;38.03;23.13;;;15.40;90.30;;;14.68;74.55;100365.28;4993379;28;20082;-81
2023/05/11 02:07:48;;;;;;;39.60;24.23;;;15.50;90.60;;;14.67;74.62;100370.91;4993369;28;20046;-80
2023/05/11 02:10:18;;;;;;;37.35;25.00;;;15.50;90.50;;;14.65;74.73;100365.78;4994246;28;20064;-81
2023/05/11 02:12:46;;;;;;;43.33;26.27;;;15.50;90.80;;;14.65;74.78;100373.03;4995318;28;20070;-81
2023/05/11 02:15:16;;;;;;;39.95;26.25;;;15.50;90.70;;;14.64;75.02;100374.06;5010545;28;20100;-81
2023/05/11 02:17:45;;;;;;;42.67;27.45;;;15.50;90.90;;;14.64;75.17;100366.00;5011220;28;20050;-81
2023/05/11 02:20:15;;;;;;;41.08;26.25;;;15.40;90.70;;;14.65;75.04;100373.03;4993898;28;20054;-81
2023/05/11 02:22:44;;;;;;;37.83;25.92;;;15.50;90.80;;;14.65;75.07;100367.66;4995495;28;20049;-81
2023/05/11 02:25:14;;;;;;;37.28;25.02;;;15.40;90.80;;;14.64;74.95;100369.53;5010302;28;20037;-81
2023/05/11 02:27:41;;;;;;;46.75;28.15;;;15.40;90.80;;;14.64;75.31;100368.69;5016050;28;20112;-81
2023/05/11 02:30:10;;;;;;;40.15;26.77;;;15.40;91.00;;;14.65;75.47;100373.03;5010414;28;20041;-81
2023/05/11 02:32:44;;;;;;;45.58;27.58;;;15.50;91.30;;;14.63;75.38;100365.19;5025199;28;20508;-81
2023/05/11 02:35:20;;;;;;;39.72;25.75;;;15.50;91.20;;;14.63;75.47;100369.75;4993271;28;20092;-81
2023/05/11 02:37:49;;;;;;;42.88;26.23;;;15.40;91.20;;;14.62;75.47;100363.59;5016122;28;20056;-81
2023/05/11 02:40:24;;;;;;;47.42;28.73;;;15.40;91.10;;;14.62;75.59;100370.81;4992712;28;20088;-81
2023/05/11 02:42:58;;;;;;;40.90;26.90;;;15.40;91.10;;;14.63;75.56;100375.13;5007456;28;20128;-81
2023/05/11 02:45:28;;;;;;;44.72;29.05;;;15.40;91.30;;;14.59;75.72;100369.44;5009921;28;20048;-81
2023/05/11 02:47:58;;;;;;;41.40;27.75;;;15.40;91.40;;;14.59;75.82;100372.13;5000307;28;20133;-81
2023/05/11 02:50:30;;;;;;;48.38;28.92;;;15.30;91.30;;;14.58;75.48;100367.78;4991275;28;20433;-81
2023/05/11 02:53:01;;;;;;;;;;;15.40;91.30;;;14.57;75.68;100374.22;5009698;28;20055;-80
2023/05/11 02:55:30;;;;;;;42.53;27.13;;;15.30;91.20;;;14.55;75.69;100365.59;5025539;28;19925;-81
2023/05/11 02:57:58;;;;;;;45.15;28.17;;;15.30;91.20;;;14.55;75.77;100356.75;5014106;28;20054;-81
2023/05/11 03:00:26;;;;;;;46.25;29.52;;;15.30;91.30;;;14.54;75.75;100358.63;4994161;28;20035;-81
2023/05/11 03:02:53;;;;;;;43.35;29.15;;;15.30;91.40;;;14.52;75.58;100360.72;5009338;28;20572;-81
2023/05/11 03:05:23;;;;;;;41.90;27.90;;;15.30;91.30;;;14.50;75.61;100356.66;4992536;28;20076;-81
2023/05/11 03:07:52;;;;;;;46.20;29.63;;;15.30;91.60;;;14.50;75.64;100362.03;4992941;28;20038;-81
2023/05/11 03:10:19;;;;;;;39.95;26.58;;;15.20;91.40;;;14.49;75.61;100358.50;5009679;28;20073;-81
2023/05/11 03:12:47;;;;;;;42.38;27.88;;;15.30;91.60;;;14.47;75.60;100352.53;4992476;28;20046;-81
2023/05/11 03:15:16;;;;;;;39.67;27.60;;;15.20;91.30;;;14.47;75.48;100359.78;5009162;28;20057;-81
2023/05/11 03:17:47;;;;;;;38.70;27.17;;;15.20;91.20;;;14.45;75.34;100349.28;4990675;28;20048;-81
2023/05/11 03:20:17;;;;;;;41.17;26.65;;;15.20;91.00;;;14.45;75.18;100343.91;5024824;28;20049;-81
2023/05/11 03:22:46;;;;;;;38.92;27.08;;;15.20;91.00;;;14.46;75.07;100345.53;5010325;28;20080;-81
2023/05/11 03:25:15;;;;;;;40.88;26.75;;;15.20;90.90;;;14.46;74.94;100353.59;4988783;28;20089;-81
2023/05/11 03:27:45;;;;;;;42.15;26.92;;;15.20;91.00;;;14.49;74.83;100355.00;5020852;28;20061;-81
2023/05/11 03:30:15;;;;;;;41.85;27.33;;;15.20;90.90;;;14.47;74.69;100346.34;5004151;28;20050;-81
2023/05/11 03:32:45;;;;;;;45.88;27.98;;;15.20;90.80;;;14.48;74.62;100350.69;4992433;28;20081;-81
2023/05/11 03:35:13;;;;;;;36.90;25.90;;;15.20;90.80;;;14.48;74.64;100350.69;4992439;28;20081;-81
2023/05/11 03:37:41;;;;;;;38.22;26.63;;;15.20;90.60;;;14.48;74.46;100346.13;4991222;28;20050;-81
2023/05/11 03:40:11;;;;;;;40.70;26.27;;;15.20;90.60;;;14.46;74.37;100347.41;4991428;28;20528;-81
2023/05/11 03:42:49;;;;;;;38.42;26.52;;;15.20;90.50;;;14.45;74.51;100349.28;4988476;28;20901;-81
2023/05/11 03:45:20;;;;;;;37.53;26.23;;;15.20;90.40;;;14.47;74.33;100341.00;5015255;28;20526;-81
2023/05/11 03:47:49;;;;;;;47.03;28.02;;;15.20;90.50;;;14.47;74.33;100338.31;5023255;28;20499;-81
2023/05/11 03:50:19;;;;;;;40.60;27.58;;;15.20;90.50;;;14.46;74.24;100340.19;5007455;28;20128;-81
2023/05/11 03:52:47;;;;;;;41.83;27.27;;;15.20;90.40;;;14.48;74.26;100343.44;4992265;28;20053;-81
2023/05/11 03:55:14;;;;;;;43.50;28.75;;;15.20;90.40;;;14.48;74.28;100348.00;4996375;28;20048;-81
2023/05/11 03:57:42;;;;;;;43.50;29.00;;;15.20;90.40;;;14.48;74.30;100350.69;4994715;28;20057;-81
2023/05/11 04:00:13;;;;;;;41.95;28.17;;;15.20;90.40;;;14.49;74.29;100344.25;4991302;28;20775;-81
2023/05/11 04:02:44;;;;;;;43.80;28.17;;;15.20;90.50;;;14.50;74.30;100349.41;4991831;28;20168;-81
2023/05/11 04:05:13;;;;;;;40.58;26.90;;;15.20;90.40;;;14.49;74.35;100358.50;4975901;28;20422;-81
2023/05/11 04:07:43;;;;;;;40.42;27.77;;;15.30;90.60;;;14.49;74.69;100349.63;5014213;28;20045;-81
2023/05/11 04:10:11;;;;;;;42.50;28.30;;;15.30;90.70;;;14.50;74.59;100364.72;4992288;28;20116;-85
2023/05/11 04:12:38;;;;;;;43.05;28.17;;;15.30;90.80;;;14.50;74.88;100362.03;4991318;28;20427;-84
2023/05/11 04:15:07;;;;;;;45.50;28.58;;;15.30;91.00;;;14.50;75.07;100349.41;4991587;28;20085;-83
2023/05/11 04:17:36;;;;;;;46.97;30.00;;;15.30;91.00;;;14.50;74.97;100348.59;5005926;28;20073;-82
2023/05/11 04:20:03;;;;;;;44.35;28.73;;;15.30;91.00;;;14.51;75.23;100352.91;5008083;28;20092;-82
2023/05/11 04:22:30;;;;;;;46.92;29.98;;;15.30;91.00;;;14.51;75.28;100355.59;5009189;28;20053;-82
2023/05/11 04:24:58;;;;;;;47.25;30.15;;;15.30;91.10;;;14.51;75.15;100351.03;5008162;28;20084;-82
2023/05/11 04:27:25;;;;;;;45.13;29.23;;;15.30;91.00;;;14.52;75.17;100351.84;5010170;28;20131;-82
2023/05/11 04:29:52;;;;;;;47.60;31.15;;;15.30;91.00;;;14.51;75.31;100361.78;5009070;28;20042;-82
2023/05/11 04:32:20;;;;;;;49.63;31.25;;;15.30;91.10;;;14.53;75.14;100354.28;5008528;28;20129;-83
2023/05/11 04:34:48;;;;;;;49.45;30.50;;;15.30;91.00;;;14.54;75.14;100357.78;5007527;28;20049;-83
2023/05/11 04:37:19;;;;;;;47.55;30.42;;;15.30;90.90;;;14.54;75.13;100364.00;5021269;28;20498;-82
2023/05/11 04:39:47;;;;;;;46.60;31.90;;;15.30;91.10;;;14.56;75.22;100366.41;5008645;28;20033;-82
2023/05/11 04:42:14;;;;;;;50.55;31.58;;;15.30;91.10;;;14.57;75.31;100357.31;4995726;28;20056;-82
2023/05/11 04:44:43;;;;;;;56.67;32.90;;;15.30;91.10;;;14.55;75.51;100367.47;4990618;28;20139;-82
2023/05/11 04:47:10;;;;;;;52.40;30.70;;;15.30;91.20;;;14.55;75.63;100373.66;5010188;28;20038;-81
2023/05/11 04:49:38;;;;;;;56.20;32.00;;;15.30;91.20;;;14.55;75.62;100370.97;4989358;28;20049;-81
2023/05/11 04:52:07;;;;;;;51.50;31.52;;;15.30;91.40;;;14.55;75.49;100375.53;4989102;28;20461;-81
2023/05/11 04:54:35;;;;;;;54.38;31.40;;;15.30;91.40;;;14.55;76.18;100384.41;4979023;28;20045;-81
2023/05/11 04:57:02;;;;;;;49.75;31.02;;;15.40;91.50;;;14.55;76.31;100380.91;4989804;28;20034;-81
2023/05/11 04:59:31;;;;;;;51.97;31.38;;;15.30;91.50;;;14.57;76.12;100382.28;4986155;28;20560;-81
2023/05/11 05:01:59;;;;;;;50.75;31.50;;;15.40;91.50;;;14.56;75.97;100388.69;4999743;28;20054;-81
2023/05/11 05:04:26;;;;;;;46.58;29.85;;;15.40;91.60;;;14.58;76.28;100383.09;5002657;28;20749;-82
2023/05/11 05:06:54;;;;;;;53.53;31.20;;;15.40;91.60;;;14.59;76.42;100390.06;5004734;28;20502;-80
2023/05/11 05:09:22;;;;;;;54.22;31.98;;;15.40;91.60;;;14.59;76.47;100379.34;4987637;28;20041;-80
2023/05/11 05:11:50;;;;;;;57.90;34.03;;;15.40;91.60;;;14.59;76.52;100395.44;4983831;28;20104;-81
2023/05/11 05:14:17;;;;;;;59.70;34.35;;;15.40;91.70;;;14.60;76.48;100397.09;5000891;28;20568;-80
2023/05/11 05:16:45;;;;;;;55.70;34.53;;;15.40;91.80;;;14.58;76.45;100397.31;4984462;28;20037;-80
2023/05/11 05:19:12;;;;;;;56.92;33.58;;;15.40;91.80;;;14.59;76.55;100398.13;5008310;28;20089;-81
2023/05/11 05:21:40;;;;;;;63.28;35.33;;;15.40;91.60;;;14.59;76.44;100396.28;4981611;28;20056;-81
2023/05/11 05:24:10;;;;;;;66.55;37.63;;;15.40;91.70;;;14.60;76.46;100399.78;4999796;28;20076;-81
2023/05/11 05:26:38;;;;;;;66.70;36.65;;;15.40;91.70;;;14.61;76.45;100402.22;4998808;28;20030;-81
2023/05/11 05:29:06;;;;;;;69.13;37.83;;;15.40;91.80;;;14.60;76.69;100400.59;4999575;28;20041;-81
2023/05/11 05:31:33;;;;;;;68.43;35.63;;;15.40;91.80;;;14.61;76.69;100406.78;4996781;28;20053;-81
2023/05/11 05:34:02;;;;;;;68.95;37.60;;;15.40;91.80;;;14.62;76.74;100411.09;5016436;28;20395;-81
2023/05/11 05:36:30;;;;;;;68.18;37.53;;;15.50;91.90;;;14.62;76.67;100408.41;4987393;28;20053;-81
2023/05/11 05:38:57;;;;;;;67.80;36.85;;;15.40;91.80;;;14.62;76.73;100408.41;5020804;28;20049;-82
2023/05/11 05:41:25;;;;;;;68.10;37.28;;;15.40;91.90;;;14.63;76.98;100416.19;4988453;28;20180;-81
2023/05/11 05:43:54;;;;;;;67.57;35.88;;;15.50;92.00;;;14.64;76.93;100403.59;4987906;28;20034;-80
2023/05/11 05:46:22;;;;;;;65.00;36.17;;;15.40;91.80;;;14.64;76.96;100403.59;4983630;28;20039;-80
2023/05/11 05:48:49;;;;;;;67.50;36.15;;;15.50;92.20;;;14.64;77.09;100401.75;4988572;28;20045;-80
2023/05/11 05:51:16;;;;;;;78.63;37.65;;;15.50;92.20;;;14.65;77.12;100414.13;5003986;28;20574;-80
2023/05/11 05:53:44;;;;;;;76.18;37.05;;;15.40;92.30;;;14.65;77.47;100414.13;4989077;28;20069;-81
2023/05/11 05:56:11;;;;;;;68.55;37.78;;;15.50;92.60;;;14.66;77.46;100421.09;4997667;28;20319;-81
2023/05/11 05:58:39;;;;;;;66.05;35.83;;;15.50;92.40;;;14.68;77.27;100428.91;4987806;28;20049;-82
2023/05/11 06:01:08;;;;;;;63.88;33.13;;;15.50;92.40;;;14.71;77.41;100420.38;4990399;28;20052;-82
2023/05/11 06:03:35;;;;;;;70.22;35.38;;;15.50;92.20;;;14.84;77.42;100427.34;4985444;28;20054;-82
2023/05/11 06:06:04;;;;;;;62.45;34.25;;;15.60;92.40;;;14.92;77.94;100425.06;4988698;28;20128;-82
2023/05/11 06:08:31;;;;;;;66.85;35.63;;;15.60;92.80;;;15.04;78.09;100429.59;4994194;28;20053;-82
2023/05/11 06:10:58;;;;;;;63.50;33.03;;;15.80;93.20;;;15.16;78.48;100436.50;4992071;28;20411;-82
2023/05/11 06:13:26;;;;;;;63.83;34.22;;;15.90;93.60;;;15.30;78.64;100428.16;4994022;28;20100;-82
2023/05/11 06:15:53;;;;;;;60.00;33.28;;;16.00;93.70;;;15.40;78.48;100431.81;4993191;28;20030;-82
2023/05/11 06:18:32;;;;;;;53.22;31.45;;;16.10;93.60;;;15.53;77.87;100430.69;4991909;28;20503;-82
2023/05/11 06:21:01;;;;;;;53.10;32.87;;;16.20;93.00;;;15.62;77.73;100431.09;4987882;28;20050;-82
2023/05/11 06:23:31;;;;;;;55.35;32.38;;;16.30;93.00;;;15.65;77.27;100423.38;4992789;28;20133;-82
2023/05/11 06:25:58;;;;;;;52.45;31.38;;;16.40;92.70;;;15.66;77.00;100435.78;5010224;28;20050;-82
2023/05/11 06:28:28;;;;;;;50.38;31.15;;;16.40;92.30;;;15.66;76.46;100426.88;4993599;28;20141;-82
2023/05/11 06:30:59;;;;;;;50.40;30.95;;;16.40;92.00;;;15.67;76.31;100425.81;4994089;28;20145;-82
2023/05/11 06:33:28;;;;;;;53.22;31.55;;;16.40;91.60;;;15.69;76.12;100429.06;4985705;28;20119;-82
2023/05/11 06:35:57;;;;;;;48.13;29.70;;;16.50;91.70;;;15.80;76.29;100425.47;4992098;28;20054;-82
2023/05/11 06:38:28;;;;;;;47.00;28.70;;;16.60;91.80;;;15.93;75.69;100430.50;5013957;28;20111;-82
2023/05/11 06:40:56;;;;;;;42.10;27.77;;;16.70;91.40;;;15.98;75.36;100420.88;4993813;28;20046;-82
2023/05/11 06:43:23;;;;;;;47.22;28.45;;;16.70;91.10;;;15.96;75.32;100424.63;5003564;28;20133;-82
2023/05/11 06:45:53;;;;;;;41.08;27.25;;;16.70;90.90;;;15.94;74.84;100429.44;5036283;28;20068;-82
2023/05/11 06:48:22;;;;;;;43.30;26.77;;;16.70;90.70;;;15.89;74.00;100432.06;5021924;28;20053;-82
2023/05/11 06:50:49;;;;;;;43.67;26.98;;;16.70;89.80;;;15.86;73.86;100429.88;5013959;28;20160;-82
2023/05/11 06:53:18;;;;;;;38.45;26.50;;;16.70;90.00;;;15.88;73.75;100435.81;5010216;28;20457;-82
2023/05/11 06:55:45;;;;;;;40.47;26.65;;;16.70;89.90;;;15.88;73.76;100432.31;4996560;28;20070;-82
2023/05/11 06:58:13;;;;;;;39.03;24.88;;;16.70;89.80;;;15.87;74.03;100420.75;4997552;28;20502;-82
2023/05/11 07:00:40;;;;;;;41.20;26.48;;;16.70;90.00;;;15.91;73.94;100429.13;5009722;28;20057;-82
2023/05/11 07:03:07;;;;;;;43.13;27.70;;;16.70;90.00;;;16.01;74.33;100423.91;5007970;28;20564;-82
2023/05/11 07:05:36;;;;;;;38.75;24.40;;;16.80;90.40;;;16.06;74.08;100421.28;5002737;28;20048;-82
2023/05/11 07:08:03;;;;;;;41.47;27.02;;;16.80;90.00;;;16.13;74.00;100427.28;5009639;28;20049;-82
2023/05/11 07:10:33;;;;;;;36.58;24.65;;;16.80;89.90;;;16.14;73.96;100428.09;5010986;28;20042;-82
2023/05/11 07:13:00;;;;;;;38.90;23.83;;;16.80;90.00;;;16.14;73.43;100428.09;4992897;28;20505;-82
2023/05/11 07:15:27;;;;;;;37.80;24.92;;;16.90;89.70;;;16.14;72.89;100425.41;5010636;28;20128;-82
2023/05/11 07:17:54;;;;;;;37.83;26.02;;;16.90;89.10;;;16.13;73.14;100423.78;5001898;28;20533;-82
2023/05/11 07:20:21;;;;;;;40.05;25.73;;;16.90;89.30;;;16.10;72.53;100424.25;5011306;28;20104;-82
2023/05/11 07:22:49;;;;;;;39.83;26.58;;;16.80;88.60;;;16.04;72.43;100426.06;5009681;28;20038;-82
2023/05/11 07:25:16;;;;;;;42.45;28.17;;;16.80;89.00;;;16.05;73.00;100430.38;5009789;28;20180;-82
2023/05/11 07:27:44;;;;;;;46.40;28.65;;;16.80;89.20;;;16.04;73.55;100425.25;5012871;28;20069;-82
2023/05/11 07:30:12;;;;;;;45.42;30.05;;;16.80;89.70;;;16.04;73.59;100425.25;5010221;28;20050;-82
2023/05/11 07:32:40;;;;;;;44.97;28.38;;;16.80;89.60;;;16.06;73.79;100425.84;5009370;28;20128;-82
2023/05/11 07:35:08;;;;;;;41.80;27.08;;;16.80;89.80;;;16.07;73.39;100430.97;5008710;28;20046;-82
2023/05/11 07:37:35;;;;;;;42.58;25.63;;;16.80;89.50;;;16.08;73.32;100434.47;5010545;28;20589;-82
2023/05/11 07:40:03;;;;;;;35.78;24.75;;;16.80;89.30;;;16.06;72.53;100440.09;5014162;28;20298;-82
2023/05/11 07:42:30;;;;;;;38.33;25.08;;;16.80;88.90;;;16.04;71.97;100441.41;5009344;28;20045;-82
2023/05/11 07:44:59;;;;;;;34.33;24.58;;;16.80;88.30;;;16.02;72.04;100447.03;5009503;28;20049;-82
2023/05/11 07:47:26;;;;;;;36.22;23.05;;;16.80;88.60;;;16.03;72.06;100445.97;5009655;28;20038;-82
2023/05/11 07:49:53;;;;;;;31.05;22.13;;;16.80;88.60;;;16.04;72.01;100444.09;5009239;28;20072;-82
2023/05/11 07:52:20;;;;;;;31.88;20.02;;;16.80;88.50;;;16.07;71.89;100446.31;5007457;28;20145;-82
2023/05/11 07:54:48;;;;;;;30.80;20.63;;;16.80;88.30;;;16.08;71.63;100437.16;5032520;22;20103;-76
2023/05/11 07:57:15;;;;;;;37.22;24.08;;;16.80;88.10;;;16.06;71.90;100434.72;5028238;28;20080;-76
2023/05/11 07:59:42;;;;;;;38.10;24.02;;;16.80;88.40;;;16.07;72.12;100435.53;5024420;28;20154;-76
2023/05/11 08:02:11;;;;;;;38.35;25.83;;;16.80;88.50;;;16.07;72.41;100428.28;5029094;28;20044;-76
2023/05/11 08:04:38;;;;;;;40.90;27.67;;;16.80;88.70;;;16.09;72.84;100430.72;5028683;28;20037;-75
2023/05/11 08:07:05;;;;;;;40.67;26.80;;;16.80;88.90;;;16.10;73.03;100429.66;5029389;28;20069;-76
2023/05/11 08:09:32;;;;;;;39.58;26.58;;;16.80;89.20;;;16.10;72.69;100437.72;5026784;28;20041;-75
2023/05/11 08:12:01;;;;;;;41.72;27.33;;;16.90;89.00;;;16.10;72.52;100427.75;5030830;28;20545;-75
2023/05/11 08:14:28;;;;;;;42.20;27.17;;;16.90;88.90;;;16.12;72.17;100438.31;5028217;28;20037;-76
2023/05/11 08:16:55;;;;;;;41.00;27.40;;;16.90;88.50;;;16.14;72.18;100439.66;5023648;28;20121;-75
2023/05/11 08:19:24;;;;;;;42.03;28.33;;;16.90;88.40;;;16.15;72.19;100444.00;5027296;28;20541;-75
2023/05/11 08:21:51;;;;;;;40.10;28.05;;;16.90;88.50;;;16.16;72.04;100440.25;5029338;28;20080;-75
2023/05/11 08:24:18;;;;;;;41.55;27.20;;;16.90;88.40;;;16.20;72.43;100448.63;5026743;28;20822;-75
2023/05/11 08:26:46;;;;;;;42.55;27.90;;;17.00;88.70;;;16.24;72.27;100441.69;5028808;28;20079;-76
2023/05/11 08:29:13;;;;;;;39.03;25.75;;;17.00;88.30;;;16.22;72.34;100441.94;5029269;28;20532;-75
2023/05/11 08:31:40;;;;;;;37.67;25.67;;;17.00;88.80;;;16.21;71.72;100444.88;5025435;28;20046;-75
2023/05/11 08:34:08;;;;;;;39.38;26.45;;;17.00;88.20;;;16.25;71.67;100440.63;5027823;28;20561;-82
2023/05/11 08:36:36;;;;;;;38.58;25.35;;;17.00;88.40;;;16.27;72.18;100437.69;5009656;28;20038;-75
2023/05/11 08:39:04;;;;;;;38.92;25.88;;;17.00;88.60;;;16.31;72.12;100439.63;5014120;28;20152;-75
2023/05/11 08:41:32;;;;;;;36.28;24.77;;;17.10;88.70;;;16.35;71.29;100434.56;5026721;28;20107;-76
2023/05/11 08:44:00;;;;;;;31.75;21.30;;;17.10;87.90;;;16.37;70.34;100433.25;5029027;28;20128;-76
2023/05/11 08:46:33;;;;;;;26.35;17.33;;;17.20;86.20;;;16.42;69.88;100436.00;5028453;28;20040;-76
2023/05/11 08:49:00;;;;;;;22.63;15.57;;;17.20;86.50;;;16.46;69.98;100441.69;5029115;28;20048;-76
2023/05/11 08:51:28;;;;;;;24.52;16.63;;;17.20;86.90;;;16.48;68.36;100439.56;5027282;28;20077;-76
2023/05/11 08:53:58;;;;;;;24.33;16.50;;;17.30;85.30;;;16.52;69.35;100440.69;5028215;28;20038;-75
2023/05/11 08:56:27;;;;;;;39.53;17.93;;;17.30;86.30;;;16.59;68.58;100432.41;5048757;28;20033;-76
2023/05/11 08:58:55;;;;;;;253.55;34.17;;;17.30;85.50;;;16.70;68.44;100428.78;5047203;28;20448;-76
2023/05/11 09:01:23;;;;;;;92.03;24.45;;;17.40;84.90;;;16.80;70.28;100436.19;5041696;28;20037;-76
2023/05/11 09:03:51;;;;;;;35.20;17.42;;;17.50;87.50;;;16.87;67.34;100434.09;5029210;28;20480;-75
2023/05/11 09:06:19;;;;;;;32.58;16.85;;;17.60;83.30;;;16.92;68.14;100436.84;5048461;28;20123;-75
2023/05/11 09:08:47;;;;;;;32.97;21.13;;;17.70;84.90;;;17.01;68.75;100434.50;5048459;28;20052;-76
2023/05/11 09:11:16;;;;;;;32.38;20.40;;;17.70;85.50;;;17.03;68.25;100438.59;5047188;28;20107;-76
2023/05/11 09:13:43;;;;;;;33.97;21.75;;;17.80;85.10;;;17.04;68.64;100439.41;5048253;28;20049;-75
2023/05/11 09:16:10;;;;;;;34.72;22.40;;;17.80;85.30;;;17.04;68.58;100439.41;5029991;28;20044;-75
2023/05/11 09:18:47;;;;;;;34.97;23.85;;;17.80;84.90;;;17.02;68.44;100434.25;5046384;28;20099;-75
2023/05/11 09:21:14;;;;;;;32.90;22.65;;;17.80;84.90;;;17.06;69.84;100435.38;5041848;28;20052;-76
2023/05/11 09:23:41;;;;;;;34.97;22.45;;;17.90;86.20;;;17.09;67.45;100444.84;5046230;28;20056;-76
2023/05/11 09:26:15;;;;;;;33.25;22.38;;;17.90;83.90;;;17.10;67.50;100443.78;5048319;28;20120;-75
2023/05/11 09:28:50;;;;;;;36.35;23.02;;;17.90;84.10;;;17.07;65.73;100433.50;5047095;28;20517;-76
2023/05/11 09:31:36;;;;;;;30.00;21.95;;;17.90;82.70;;;17.07;66.62;100428.91;5047940;28;20048;-75
2023/05/11 09:34:16;;;;;;;34.17;22.65;;;17.90;83.60;;;17.06;65.77;100426.47;5014326;28;20489;-76
2023/05/11 09:36:44;;;;;;;30.50;22.35;;;17.90;82.70;;;17.07;67.46;100425.41;5034900;28;20503;-76
2023/05/11 09:39:12;;;;;;;31.80;21.63;;;17.90;84.10;;;17.03;66.79;100421.59;5052000;28;20045;-76
2023/05/11 09:41:41;;;;;;;31.30;22.05;;;17.90;83.30;;;17.01;66.06;100429.94;5051136;28;20045;-75
2023/05/11 09:44:10;;;;;;;35.30;22.38;;;17.90;82.70;;;17.01;64.63;100424.56;5051386;28;20417;-76
2023/05/11 09:46:38;;;;;;;31.70;22.40;;;17.90;81.30;;;17.03;65.31;100422.44;5050644;28;20084;-76
2023/05/11 09:49:07;;;;;;;29.95;21.38;;;17.90;82.50;;;17.09;66.66;100425.97;5050498;28;20045;-75
2023/05/11 09:51:36;;;;;;;27.63;19.38;;;17.90;83.70;;;17.20;69.84;100428.50;5045010;28;20069;-75
2023/05/11 09:54:18;;;;;;;31.75;20.88;;;18.00;86.20;;;17.23;68.03;100427.19;5044033;28;20095;-76
2023/05/11 09:56:49;;;;;;;27.92;18.42;;;18.00;84.30;;;17.19;65.38;100424.19;5047455;28;20127;-76
2023/05/11 09:59:35;;;;;;;30.20;19.98;;;18.00;82.00;;;17.21;66.10;100432.81;5049232;28;20708;-76
2023/05/11 10:02:17;;;;;;;29.23;20.52;;;18.00;82.70;;;17.27;66.89;100427.47;5048037;28;20060;-75
2023/05/11 10:04:44;;;;;;;29.85;20.00;;;18.10;84.00;;;17.28;66.33;100435.31;5047807;28;20584;-76
2023/05/11 10:07:22;;;;;;;40.55;20.63;;;18.10;83.10;;;17.28;66.74;100429.94;5047738;28;20521;-76
2023/05/11 10:09:50;;;;;;;30.15;20.60;;;18.10;83.70;;;17.25;65.81;100430.44;5051221;28;20052;-76